createdAt,value
2019-05-12T00:00:50.989Z,94518.77
2019-05-12T00:15:51.180Z,94528.44
2019-05-12T00:30:52.350Z,94536.17
2019-05-12T00:45:49.482Z,94531.33
2019-05-12T01:00:50.947Z,94532.69
2019-05-12T01:15:55.361Z,94533.64
2019-05-12T01:30:58.617Z,94545.99
2019-05-12T01:45:49.216Z,94543.24
2019-05-12T02:00:49.166Z,94544.25
2019-05-12T02:15:49.262Z,94543.22
2019-05-12T02:30:50.714Z,94557.76
2019-05-12T02:45:55.027Z,94556.63
2019-05-12T03:00:50.332Z,94568.28
2019-05-12T03:15:56.016Z,94590.32
2019-05-12T03:30:50.032Z,94599.45
2019-05-12T03:45:55.830Z,94595.52
2019-05-12T04:00:56.801Z,94589.55
2019-05-12T04:15:55.937Z,94593.42
2019-05-12T04:30:55.626Z,94607.70
2019-05-12T04:45:49.643Z,94598.94
2019-05-12T05:00:54.097Z,94605.03
2019-05-12T05:15:49.840Z,94603.80
2019-05-12T05:30:49.772Z,94596.66
2019-05-12T05:45:56.092Z,94593.96
2019-05-12T06:00:54.792Z,94594.45
2019-05-12T06:15:49.038Z,94593.80
2019-05-12T06:30:50.205Z,94589.75
2019-05-12T06:45:49.841Z,94600.69
2019-05-12T07:00:49.673Z,94591.16
2019-05-12T07:15:49.956Z,94585.78
2019-05-12T07:30:57.186Z,94554.98
2019-05-12T07:45:53.975Z,94549.06
2019-05-12T08:00:55.267Z,94542.30
2019-05-12T08:15:56.426Z,94533.85
2019-05-12T08:30:55.872Z,94533.70
2019-05-12T08:45:48.893Z,94525.29
2019-05-12T09:00:50.538Z,94520.72
2019-05-12T09:15:49.880Z,94530.38
2019-05-12T09:30:49.947Z,94520.28
2019-05-12T09:45:53.942Z,94520.77
2019-05-12T10:00:54.164Z,94511.34
2019-05-12T10:15:58.775Z,94505.97
2019-05-12T10:30:55.306Z,94482.05
2019-05-12T10:45:48.913Z,94468.45
2019-05-12T11:00:59.003Z,94468.48
2019-05-12T11:15:54.535Z,94456.59
2019-05-12T11:45:53.484Z,94428.81
2019-05-12T12:01:04.741Z,94434.33
2019-05-12T12:15:49.364Z,94423.80
2019-05-12T12:30:52.450Z,94403.44
2019-05-12T12:45:54.631Z,94402.50
2019-05-12T13:00:53.787Z,94416.11
2019-05-12T13:15:49.384Z,94396.28
2019-05-12T13:30:49.746Z,94394.76
2019-05-12T13:45:49.111Z,94367.46
2019-05-12T14:01:09.169Z,94390.06
2019-05-12T14:15:50.087Z,94372.69
2019-05-12T14:30:51.593Z,94402.36
2019-05-12T14:45:54.235Z,94414.61
2019-05-12T15:00:50.963Z,94401.83
2019-05-12T15:15:54.898Z,94411.91
2019-05-12T15:30:50.973Z,94410.73
2019-05-12T15:45:55.451Z,94409.03
2019-05-12T16:00:49.564Z,94416.84
2019-05-12T16:15:57.505Z,94426.00
2019-05-12T16:30:53.552Z,94422.44
2019-05-12T16:45:53.644Z,94417.59
2019-05-12T17:00:53.441Z,94426.48
2019-05-12T17:46:03.661Z,94460.41
2019-05-12T18:00:59.232Z,94468.16
2019-05-12T18:15:52.981Z,94492.20
2019-05-12T18:30:57.577Z,94488.77
2019-05-12T19:30:50.329Z,94501.59
2019-05-12T19:46:03.138Z,94500.50
2019-05-12T20:15:53.624Z,94502.27
2019-05-12T20:31:00.706Z,94503.80
2019-05-12T21:45:55.221Z,94475.42
2019-05-12T22:01:06.880Z,94469.39
2019-05-12T22:30:51.102Z,94457.45
2019-05-12T22:45:58.168Z,94460.50
2019-05-12T23:00:57.394Z,94455.74
2019-05-12T23:15:54.177Z,94471.76
2019-05-12T23:30:50.184Z,94462.20
